Time;durP1;ratioP1;P1;durP2;ratioP2;P2;SDS_P1;SDS_P2;PMS_P1;PMS_P2;Temp;Humidity;BMP_temperature;BMP_pressure;BME280_temperature;BME280_humidity;BME280_pressure;Samples;Min_cycle;Max_cycle;Signal;HPM_P1;HPM_P2
2021/08/20 00:00:06;;;;;;;;;3.25;3.25;;;;;19.62;49.41;101227.28;5082107;27;46158;-50
2021/08/20 00:02:31;;;;;;;;;4.50;4.00;;;;;19.58;49.36;101225.69;5081043;28;45264;-49
2021/08/20 00:04:57;;;;;;;;;5.00;3.25;;;;;19.52;49.15;101225.97;5082313;28;45415;-47
2021/08/20 00:07:22;;;;;;;;;7.00;5.50;;;;;19.48;49.34;101228.78;5082398;28;45588;-48
2021/08/20 00:09:55;;;;;;;;;6.25;6.25;;;;;19.41;49.15;101227.31;5081979;27;46286;-51
2021/08/20 00:12:21;;;;;;;;;5.25;4.25;;;;;19.39;49.15;101225.63;5081039;28;45274;-48
2021/08/20 00:14:46;;;;;;;;;5.00;5.00;;;;;19.34;49.63;101223.16;5082229;28;45165;-47
2021/08/20 00:17:12;;;;;;;;;4.50;4.50;;;;;19.31;49.64;101223.31;5080823;28;45422;-46
2021/08/20 00:19:37;;;;;;;;;5.75;5.75;;;;;19.26;49.44;101223.50;5081803;27;45428;-47
2021/08/20 00:22:07;;;;;;;;;4.50;4.00;;;;;19.24;49.35;101232.50;5081825;27;45457;-47
2021/08/20 00:24:33;;;;;;;;;6.25;6.00;;;;;19.19;49.49;101226.50;5082069;28;45233;-46
2021/08/20 00:26:59;;;;;;;;;2.25;1.50;;;;;19.17;49.62;101234.56;5081813;28;45471;-47
2021/08/20 00:29:25;;;;;;;;;8.75;8.25;;;;;19.13;49.33;101225.84;5080301;28;47213;-49
2021/08/20 00:31:50;;;;;;;;;5.50;5.50;;;;;19.11;49.56;101230.34;5081681;27;45329;-47
2021/08/20 00:34:16;;;;;;;;;4.00;3.00;;;;;19.11;49.47;101230.34;5081924;28;45180;-47
2021/08/20 00:36:41;;;;;;;;;4.75;3.00;;;;;19.08;49.46;101222.50;5082041;28;45247;-47
2021/08/20 00:39:07;;;;;;;;;7.00;4.00;;;;;19.05;49.64;101219.94;5081563;28;46296;-48
2021/08/20 00:41:32;;;;;;;;;4.00;2.00;;;;;19.05;49.57;101222.63;5081826;27;45482;-45
2021/08/20 00:43:59;;;;;;;;;4.75;4.25;;;;;19.04;49.34;101226.19;5081684;28;45298;-49
2021/08/20 00:46:24;;;;;;;;;4.25;4.25;;;;;19.03;49.57;101232.50;5081498;28;45417;-46
2021/08/20 00:48:49;;;;;;;;;2.25;2.25;;;;;19.01;49.58;101234.34;5080477;28;45231;-48
2021/08/20 00:51:17;;;;;;;;;4.00;3.00;;;;;18.99;49.48;101229.09;5081363;28;45318;-46
2021/08/20 00:53:44;;;;;;;;;4.25;4.25;;;;;18.95;49.29;101221.28;5081692;28;45242;-49
2021/08/20 00:56:09;;;;;;;;;4.75;4.75;;;;;18.95;49.53;101223.94;5081599;28;45432;-49
2021/08/20 00:58:35;;;;;;;;;4.00;4.00;;;;;18.89;49.80;101216.16;5079842;28;45725;-50
2021/08/20 01:01:02;;;;;;;;;5.00;5.00;;;;;18.89;49.24;101222.34;5080289;27;45269;-49
2021/08/20 01:03:29;;;;;;;;;4.00;4.00;;;;;18.88;49.75;101222.41;5081323;28;45600;-46
2021/08/20 01:05:55;;;;;;;;;4.00;4.00;;;;;18.84;49.57;101211.91;5081321;28;45429;-46
2021/08/20 01:08:24;;;;;;;;;3.00;3.00;;;;;18.83;49.48;101217.31;5081128;28;46394;-45
2021/08/20 01:10:51;;;;;;;;;3.00;3.00;;;;;18.81;49.87;101216.50;5081229;27;45405;-47
2021/08/20 01:13:17;;;;;;;;;4.25;4.25;;;;;18.78;49.40;101212.16;5081040;28;45264;-49
2021/08/20 01:15:43;;;;;;;;;4.00;3.50;;;;;18.78;49.17;101211.28;5079890;28;45390;-46
2021/08/20 01:18:08;;;;;;;;;3.00;3.00;;;;;18.76;49.43;101214.00;5080658;28;46126;-47
2021/08/20 01:20:34;;;;;;;;;7.25;5.75;;;;;18.76;49.59;101219.34;5081133;28;45391;-51
2021/08/20 01:22:59;;;;;;;;;4.25;4.00;;;;;18.74;50.00;101210.56;5081038;28;45424;-50
2021/08/20 01:25:25;;;;;;;;;6.00;5.00;;;;;18.74;49.66;101217.66;5081117;28;45316;-50
2021/08/20 01:28:04;;;;;;;;;4.00;4.00;;;;;18.72;49.83;101212.41;5080776;28;46187;-49
2021/08/20 01:30:29;;;;;;;;;5.00;4.00;;;;;18.72;49.73;101207.09;5080842;28;45312;-51
2021/08/20 01:32:55;;;;;;;;;2.50;2.25;;;;;18.72;49.99;101211.56;5080807;28;45219;-48
2021/08/20 01:35:22;;;;;;;;;6.00;5.00;;;;;18.70;49.71;101206.28;5081009;27;45227;-48
2021/08/20 01:37:47;;;;;;;;;3.75;3.75;;;;;18.70;49.67;101206.28;5080868;28;46141;-50
2021/08/20 01:40:13;;;;;;;;;3.00;3.00;;;;;18.72;50.21;101207.09;5080566;27;45362;-46
2021/08/20 01:42:38;;;;;;;;;5.25;4.25;;;;;18.72;49.85;101201.75;5081056;28;45323;-47
2021/08/20 01:45:04;;;;;;;;;5.00;4.00;;;;;18.71;50.18;101197.38;5080749;28;45442;-46
2021/08/20 01:47:29;;;;;;;;;3.50;3.50;;;;;18.71;50.19;101189.38;5080420;28;46242;-47
2021/08/20 01:49:55;;;;;;;;;5.00;3.75;;;;;18.72;49.96;101192.94;5079171;27;45316;-46
2021/08/20 01:52:20;;;;;;;;;3.75;3.00;;;;;18.72;50.00;101192.94;5081010;28;45408;-50
2021/08/20 01:54:45;;;;;;;;;5.00;5.00;;;;;18.71;50.27;101194.69;5079297;28;45505;-46
2021/08/20 01:57:11;;;;;;;;;3.25;3.25;;;;;18.72;50.16;101195.59;5067208;28;45509;-45
2021/08/20 01:59:37;;;;;;;;;4.50;4.50;;;;;18.71;50.26;101188.53;5080417;28;45333;-46
2021/08/20 02:02:03;;;;;;;;;5.75;4.00;;;;;18.70;49.95;101189.44;5080192;28;45404;-46
2021/08/20 02:04:29;;;;;;;;;4.50;4.00;;;;;18.71;50.15;101188.53;5080384;28;45315;-47
2021/08/20 02:06:54;;;;;;;;;4.00;4.00;;;;;18.71;50.21;101186.72;5079181;28;45309;-51
2021/08/20 02:09:20;;;;;;;;;7.75;5.00;;;;;18.71;50.28;101189.38;5079148;28;45593;-48
2021/08/20 02:11:45;;;;;;;;;3.75;3.75;;;;;18.68;50.26;101178.88;5080270;28;45220;-49
2021/08/20 02:14:11;;;;;;;;;6.00;4.00;;;;;18.68;50.07;101177.06;5080507;28;45309;-48
2021/08/20 02:16:36;;;;;;;;;7.50;4.50;;;;;18.67;50.42;101183.31;5078754;28;46017;-46
2021/08/20 02:19:01;;;;;;;;;6.00;4.00;;;;;18.65;50.55;101177.19;5079347;28;46251;-50
2021/08/20 02:21:27;;;;;;;;;2.25;2.00;;;;;18.66;50.54;101172.72;5080311;28;45357;-48
2021/08/20 02:23:52;;;;;;;;;6.00;4.00;;;;;18.67;50.45;101169.16;5078761;28;46070;-53
2021/08/20 02:26:19;;;;;;;;;2.75;2.75;;;;;18.65;50.48;101171.00;5080214;27;47352;-48
2021/08/20 02:28:44;;;;;;;;;4.00;2.25;;;;;18.63;50.26;101178.19;5078770;28;45247;-49
2021/08/20 02:31:09;;;;;;;;;5.25;5.25;;;;;18.65;50.60;101173.66;5079907;28;45324;-48
2021/08/20 02:33:35;;;;;;;;;4.75;4.00;;;;;18.63;50.47;101176.38;5080082;28;45298;-50
2021/08/20 02:36:02;;;;;;;;;4.00;4.00;;;;;18.64;50.50;101177.25;5079934;27;47005;-48
2021/08/20 02:38:28;;;;;;;;;4.25;4.25;;;;;18.61;50.53;101170.25;5080098;28;45178;-48
2021/08/20 02:40:53;;;;;;;;;4.00;4.00;;;;;18.61;50.83;101167.59;5079989;28;45264;-47
2021/08/20 02:43:18;;;;;;;;;3.75;3.75;;;;;18.58;50.56;101167.72;5080048;28;45407;-47
2021/08/20 02:45:44;;;;;;;;;4.00;4.00;;;;;18.59;50.83;101157.94;5079991;28;47062;-47
2021/08/20 02:48:09;;;;;;;;;4.50;4.50;;;;;18.59;50.69;101164.16;5079806;28;45351;-49
2021/08/20 02:50:35;;;;;;;;;4.00;4.00;;;;;18.60;50.49;101160.56;5079827;27;45536;-50
2021/08/20 02:53:00;;;;;;;;;4.25;4.25;;;;;18.61;50.72;101158.75;5078664;28;45238;-48
2021/08/20 02:55:25;;;;;;;;;3.25;3.00;;;;;18.60;50.50;101165.00;5079585;28;46905;-51
2021/08/20 02:57:51;;;;;;;;;6.00;4.75;;;;;18.62;50.65;101168.47;5079754;28;45178;-48
2021/08/20 03:00:16;;;;;;;;;4.50;4.50;;;;;18.61;50.84;101180.91;5078477;27;45371;-46
2021/08/20 03:02:42;;;;;;;;;6.00;6.00;;;;;18.61;50.49;101177.38;5079580;28;45540;-46
2021/08/20 03:05:07;;;;;;;;;4.75;4.75;;;;;18.60;50.82;101178.31;5079576;28;46016;-45
2021/08/20 03:07:33;;;;;;;;;4.00;4.00;;;;;18.59;50.83;101179.22;5079763;28;45312;-46
2021/08/20 03:09:58;;;;;;;;;4.25;3.00;;;;;18.59;50.93;101171.25;5079516;28;45389;-48
2021/08/20 03:12:24;;;;;;;;;5.25;5.00;;;;;18.57;50.76;101166.00;5080235;28;45309;-48
2021/08/20 03:14:51;;;;;;;;;6.00;6.00;;;;;18.58;51.01;101175.72;5083007;28;46415;-50
2021/08/20 03:17:16;;;;;;;;;4.75;4.75;;;;;18.58;50.95;101177.50;5082878;28;45275;-47
2021/08/20 03:19:42;;;;;;;;;6.50;5.75;;;;;18.59;50.53;101174.78;5083125;27;45315;-48
2021/08/20 03:22:07;;;;;;;;;4.00;4.00;;;;;18.59;50.88;101177.44;5082897;28;45232;-48
2021/08/20 03:24:32;;;;;;;;;5.00;4.25;;;;;18.61;51.07;101180.03;5082789;28;45236;-51
2021/08/20 03:26:58;;;;;;;;;4.00;4.00;;;;;18.61;50.82;101172.91;5082875;28;45226;-45
2021/08/20 03:29:23;;;;;;;;;3.50;3.50;;;;;18.60;50.82;101163.22;5082918;28;45250;-50
2021/08/20 03:31:48;;;;;;;;;4.25;3.75;;;;;18.63;50.82;101164.88;5081353;27;45232;-50
2021/08/20 03:34:13;;;;;;;;;5.50;4.25;;;;;18.64;50.78;101169.25;5082610;28;46286;-48
2021/08/20 03:36:39;;;;;;;;;6.00;4.25;;;;;18.63;50.72;101168.41;5082913;28;45262;-50
2021/08/20 03:39:04;;;;;;;;;5.00;5.00;;;;;18.64;50.74;101167.47;5082841;28;45158;-46
2021/08/20 03:41:30;;;;;;;;;4.50;4.50;;;;;18.63;51.02;101164.88;5082871;27;45570;-46
2021/08/20 03:43:55;;;;;;;;;4.25;3.25;;;;;18.67;50.75;101177.13;5082443;28;46106;-46
2021/08/20 03:46:21;;;;;;;;;4.75;4.00;;;;;18.66;50.86;101175.41;5081221;28;45177;-49
2021/08/20 03:48:46;;;;;;;;;4.25;4.25;;;;;18.63;51.21;101168.41;5082685;28;45315;-49
2021/08/20 03:51:12;;;;;;;;;3.75;3.75;;;;;18.68;51.16;101171.75;5082489;27;45144;-49
2021/08/20 03:53:38;;;;;;;;;4.00;4.00;;;;;18.68;50.88;101185.03;5082333;28;45899;-47
2021/08/20 03:56:04;;;;;;;;;4.00;4.00;;;;;18.70;50.81;101177.00;5082397;28;45313;-48
2021/08/20 03:58:29;;;;;;;;;4.00;4.00;;;;;18.70;51.08;101177.00;5082268;28;45271;-46
2021/08/20 04:00:55;;;;;;;;;4.00;4.00;;;;;18.70;50.98;101177.00;5082295;27;45446;-48
2021/08/20 04:03:23;;;;;;;;;5.00;5.00;;;;;18.70;51.00;101179.66;5082085;28;46528;-51
2021/08/20 04:05:49;;;;;;;;;4.75;4.75;;;;;18.70;50.81;101179.66;5082331;28;45141;-49
2021/08/20 04:08:15;;;;;;;;;7.25;6.00;;;;;18.74;51.13;101186.59;5082199;28;45227;-49
2021/08/20 04:10:45;;;;;;;;;4.00;4.00;;;;;18.75;50.93;101184.78;5082374;27;45196;-49
2021/08/20 04:13:12;;;;;;;;;5.50;5.50;;;;;18.75;51.14;101182.13;5081810;28;45353;-49
2021/08/20 04:15:38;;;;;;;;;6.00;5.00;;;;;18.76;51.21;101192.72;5082140;28;45246;-48
2021/08/20 04:18:04;;;;;;;;;4.00;4.00;;;;;18.76;51.09;101197.19;5081987;28;45217;-48
2021/08/20 04:20:30;;;;;;;;;5.00;5.00;;;;;18.77;51.32;101196.25;5082148;28;45342;-49
2021/08/20 04:22:56;;;;;;;;;4.00;4.00;;;;;18.77;51.43;101194.44;5081487;28;46331;-46
2021/08/20 04:25:22;;;;;;;;;6.00;4.00;;;;;18.78;51.24;101197.97;5082045;28;45196;-47
2021/08/20 04:27:48;;;;;;;;;6.00;5.00;;;;;18.78;50.91;101200.63;5082001;28;45508;-47
2021/08/20 04:30:13;;;;;;;;;6.50;5.50;;;;;18.80;51.14;101197.00;5081779;28;45403;-47
2021/08/20 04:32:39;;;;;;;;;4.75;4.00;;;;;18.80;51.31;101196.13;5081490;28;46094;-50
2021/08/20 04:35:05;;;;;;;;;4.50;4.50;;;;;18.81;51.29;101201.38;5080678;28;45362;-49
2021/08/20 04:37:30;;;;;;;;;4.75;4.75;;;;;18.81;51.28;101198.72;5080650;28;45409;-49
2021/08/20 04:39:55;;;;;;;;;6.00;6.00;;;;;18.81;51.32;101204.03;5081815;27;45367;-49
2021/08/20 04:42:21;;;;;;;;;6.25;5.75;;;;;18.80;51.22;101202.31;5080202;28;45887;-50
2021/08/20 04:44:46;;;;;;;;;6.00;5.75;;;;;18.83;51.16;101207.50;5080570;28;45331;-49
2021/08/20 04:47:11;;;;;;;;;4.50;4.00;;;;;18.82;50.96;101208.44;5080470;28;45778;-48
2021/08/20 04:49:37;;;;;;;;;7.00;6.00;;;;;18.83;51.47;101207.50;5081811;28;45287;-50
2021/08/20 04:52:02;;;;;;;;;4.75;4.75;;;;;18.84;51.16;101216.34;5081388;27;46098;-46
2021/08/20 04:54:28;;;;;;;;;4.25;4.00;;;;;18.84;51.51;101208.38;5081739;28;45207;-47
2021/08/20 04:56:54;;;;;;;;;5.00;3.50;;;;;18.84;51.30;101209.25;5081436;28;45345;-47
2021/08/20 04:59:19;;;;;;;;;5.75;4.00;;;;;18.84;51.17;101211.91;5081588;28;45203;-46
2021/08/20 05:01:45;;;;;;;;;6.75;5.25;;;;;18.84;51.32;101211.03;5081050;28;46032;-48
2021/08/20 05:04:11;;;;;;;;;5.00;5.00;;;;;18.83;51.40;101209.31;5081516;28;45235;-47
2021/08/20 05:06:37;;;;;;;;;7.00;6.25;;;;;18.84;51.39;101211.03;5081294;28;45252;-48
2021/08/20 05:09:03;;;;;;;;;5.25;5.25;;;;;18.84;51.20;101213.69;5081439;28;45670;-50
2021/08/20 05:11:29;;;;;;;;;5.75;5.00;;;;;18.84;51.51;101214.56;5081097;27;45433;-47
2021/08/20 05:13:55;;;;;;;;;5.25;5.25;;;;;18.85;51.41;101212.75;5081097;28;45248;-46
2021/08/20 05:16:20;;;;;;;;;5.50;4.25;;;;;18.86;51.69;101211.84;5081104;28;45358;-50
2021/08/20 05:18:46;;;;;;;;;7.25;6.50;;;;;18.86;51.29;101209.19;5081372;28;45494;-49
2021/08/20 05:21:11;;;;;;;;;7.25;6.00;;;;;18.84;51.28;101214.56;5079661;28;47043;-46
2021/08/20 05:23:36;;;;;;;;;4.00;4.00;;;;;18.87;51.32;101223.34;5079789;28;45335;-49
2021/08/20 05:26:02;;;;;;;;;6.50;4.75;;;;;18.87;51.69;101220.69;5079812;28;45303;-47
2021/08/20 05:28:27;;;;;;;;;4.75;4.75;;;;;18.87;51.48;101221.56;5081175;28;45452;-47
2021/08/20 05:30:52;;;;;;;;;5.50;5.50;;;;;18.86;51.19;101225.16;5080544;27;45995;-50
2021/08/20 05:33:18;;;;;;;;;10.75;6.25;;;;;18.87;51.65;101228.66;5081190;28;45417;-46
2021/08/20 05:35:46;;;;;;;;;5.75;5.25;;;;;18.87;51.33;101218.03;5080218;27;45245;-45
2021/08/20 05:38:12;;;;;;;;;5.00;5.00;;;;;18.86;51.61;101218.97;5079711;28;45395;-49
2021/08/20 05:40:37;;;;;;;;;5.50;5.00;;;;;18.88;51.57;101222.41;5080521;28;46037;-49
2021/08/20 05:43:03;;;;;;;;;7.00;6.00;;;;;18.91;51.70;101227.66;5080849;28;45307;-47
2021/08/20 05:45:29;;;;;;;;;6.50;6.50;;;;;18.91;51.18;101222.34;5080810;28;45309;-47
2021/08/20 05:47:54;;;;;;;;;5.50;5.00;;;;;18.92;51.34;101221.41;5080556;28;45532;-49
2021/08/20 05:50:19;;;;;;;;;6.25;4.00;;;;;18.94;51.31;101227.53;5080387;28;46297;-48
2021/08/20 05:52:45;;;;;;;;;6.00;5.00;;;;;18.95;51.39;101229.25;5080853;28;45326;-46
2021/08/20 05:55:12;;;;;;;;;5.75;5.75;;;;;18.97;51.47;101230.94;5080702;28;46137;-47
2021/08/20 05:57:37;;;;;;;;;5.00;5.00;;;;;18.97;51.36;101233.59;5080686;28;45256;-47
2021/08/20 06:00:05;;;;;;;;;6.75;5.00;;;;;19.00;51.76;101232.59;5080137;28;45149;-49
2021/08/20 06:02:30;;;;;;;;;6.00;5.25;;;;;18.99;51.49;101229.09;5080396;28;45305;-48
2021/08/20 06:04:57;;;;;;;;;3.00;3.00;;;;;19.03;51.69;101235.16;5080511;28;45246;-48
2021/08/20 06:07:22;;;;;;;;;7.75;6.75;;;;;19.04;51.58;101228.88;5080663;28;45382;-47
2021/08/20 06:09:48;;;;;;;;;5.25;4.00;;;;;19.03;51.65;101229.81;5079964;28;46039;-48
2021/08/20 06:12:14;;;;;;;;;6.50;5.00;;;;;19.07;51.69;101234.09;5080502;28;45368;-49
2021/08/20 06:14:39;;;;;;;;;6.75;5.75;;;;;19.08;51.98;101237.59;5080411;28;45287;-47
2021/08/20 06:17:05;;;;;;;;;7.00;7.00;;;;;19.09;51.64;101239.34;5080190;28;45284;-50
2021/08/20 06:19:30;;;;;;;;;5.00;5.00;;;;;19.08;51.73;101235.81;5080198;28;46156;-48
2021/08/20 06:21:56;;;;;;;;;7.50;7.25;;;;;19.11;51.61;101245.47;5080047;28;45380;-47
2021/08/20 06:24:21;;;;;;;;;5.75;5.75;;;;;19.12;51.44;101237.41;5080308;28;45524;-48
2021/08/20 06:26:47;;;;;;;;;7.25;4.25;;;;;19.13;51.22;101246.25;5080195;28;45393;-46
2021/08/20 06:29:13;;;;;;;;;5.75;5.75;;;;;19.13;51.69;101244.47;5079863;28;46140;-46
2021/08/20 06:31:39;;;;;;;;;6.00;6.00;;;;;19.14;51.89;101240.00;5079961;28;45363;-48
2021/08/20 06:34:04;;;;;;;;;7.00;5.50;;;;;19.14;51.74;101240.91;5080015;28;45217;-50
2021/08/20 06:36:30;;;;;;;;;8.25;7.00;;;;;19.15;51.54;101242.59;5080186;28;45486;-46
2021/08/20 06:38:55;;;;;;;;;8.00;7.25;;;;;19.15;51.67;101245.25;5079978;28;45289;-51
2021/08/20 06:41:20;;;;;;;;;12.25;8.50;;;;;19.16;51.50;101247.00;5080009;27;45315;-50
2021/08/20 06:43:46;;;;;;;;;9.00;8.25;;;;;19.19;51.68;101253.13;5079996;28;45497;-49
2021/08/20 06:46:11;;;;;;;;;5.00;4.00;;;;;19.19;51.71;101256.66;5080008;28;45210;-50
2021/08/20 06:48:36;;;;;;;;;9.75;7.50;;;;;19.19;51.90;101250.47;5082301;28;45307;-48
2021/08/20 06:51:01;;;;;;;;;7.00;5.75;;;;;19.20;51.59;101249.56;5083702;27;45364;-50
2021/08/20 06:53:28;;;;;;;;;7.75;6.50;;;;;19.21;51.88;101248.63;5083492;28;45238;-45
2021/08/20 06:55:53;;;;;;;;;7.00;5.25;;;;;19.22;51.52;101250.34;5082248;28;46009;-46
2021/08/20 06:58:18;;;;;;;;;6.50;4.75;;;;;19.23;51.81;101249.41;5083003;28;46325;-47
2021/08/20 07:00:44;;;;;;;;;5.00;5.00;;;;;19.25;51.74;101247.56;5082183;27;45508;-47
2021/08/20 07:03:09;;;;;;;;;7.50;6.25;;;;;19.25;51.77;101255.53;5082089;28;45278;-47
2021/08/20 07:05:35;;;;;;;;;7.50;7.25;;;;;19.26;51.66;101259.94;5083355;28;45314;-50
2021/08/20 07:08:01;;;;;;;;;5.50;5.00;;;;;19.27;51.68;101259.88;5083205;28;46151;-49
2021/08/20 07:10:26;;;;;;;;;5.50;5.50;;;;;19.27;51.76;101254.53;5083077;27;45314;-48
2021/08/20 07:12:51;;;;;;;;;6.00;5.00;;;;;19.24;52.05;101253.81;5083257;28;45378;-48
2021/08/20 07:15:17;;;;;;;;;7.00;6.00;;;;;19.28;51.79;101258.94;5083274;28;45302;-47
2021/08/20 07:17:43;;;;;;;;;7.00;6.25;;;;;19.30;51.99;101264.22;5082909;28;45328;-47
2021/08/20 07:20:09;;;;;;;;;6.00;6.00;;;;;19.29;52.16;101265.13;5083053;27;45212;-48
2021/08/20 07:22:35;;;;;;;;;7.50;5.75;;;;;19.31;51.81;101264.13;5082946;28;45333;-46
2021/08/20 07:25:00;;;;;;;;;6.75;5.75;;;;;19.34;51.67;101263.13;5083053;27;45355;-48
2021/08/20 07:27:26;;;;;;;;;6.50;6.50;;;;;19.37;52.13;101264.81;5082743;28;46194;-46
2021/08/20 07:29:51;;;;;;;;;4.00;4.00;;;;;19.36;51.86;101268.38;5082949;27;45283;-46
2021/08/20 07:32:17;;;;;;;;;7.25;4.00;;;;;19.40;51.79;101259.34;5082801;28;45197;-46
2021/08/20 07:34:42;;;;;;;;;7.00;6.00;;;;;19.42;52.01;101274.34;5082723;28;45552;-46
2021/08/20 07:37:09;;;;;;;;;7.25;6.00;;;;;19.44;51.91;101267.13;5081362;28;47385;-46
2021/08/20 07:39:36;;;;;;;;;9.50;6.50;;;;;19.45;51.53;101266.22;5081532;28;45272;-46
2021/08/20 07:42:02;;;;;;;;;6.50;5.00;;;;;19.48;51.66;101271.41;5082594;27;45363;-48
2021/08/20 07:44:27;;;;;;;;;5.25;5.25;;;;;19.51;51.64;101275.75;5082620;28;45477;-50
2021/08/20 07:46:53;;;;;;;;;7.75;6.00;;;;;19.53;51.64;101275.69;5082353;28;46099;-46
2021/08/20 07:49:18;;;;;;;;;7.25;5.75;;;;;19.56;51.67;101273.75;5082801;28;45163;-49
2021/08/20 07:51:43;;;;;;;;;5.75;5.75;;;;;19.58;52.02;101269.19;5082587;27;45244;-46
2021/08/20 07:54:09;;;;;;;;;6.00;6.00;;;;;19.62;51.64;101275.25;5082648;28;45150;-48
2021/08/20 07:56:34;;;;;;;;;8.00;6.50;;;;;19.61;51.73;101271.75;5082294;28;46335;-46
2021/08/20 07:59:00;;;;;;;;;6.00;6.00;;;;;19.67;51.76;101278.59;5080668;28;45258;-51
2021/08/20 08:01:25;;;;;;;;;6.25;6.25;;;;;19.70;52.33;101281.13;5082200;27;45208;-51
2021/08/20 08:03:51;;;;;;;;;7.75;7.00;;;;;19.72;52.01;101281.06;5082334;28;45441;-47
2021/08/20 08:06:16;;;;;;;;;6.75;6.25;;;;;19.75;52.14;101284.47;5080805;28;47142;-47
2021/08/20 08:08:43;;;;;;;;;8.75;7.00;;;;;19.76;51.85;101280.88;5082248;28;45287;-50
2021/08/20 08:11:09;;;;;;;;;8.00;8.00;;;;;19.77;51.74;101279.94;5080895;28;45256;-49
2021/08/20 08:13:35;;;;;;;;;3.50;3.50;;;;;19.80;51.64;101289.59;5082076;28;45441;-48
2021/08/20 08:16:00;;;;;;;;;6.00;5.00;;;;;19.81;51.60;101278.88;5081947;28;45334;-49
2021/08/20 08:18:25;;;;;;;;;5.00;5.00;;;;;19.87;52.00;101287.56;5082114;28;45405;-45
2021/08/20 08:20:51;;;;;;;;;8.00;6.75;;;;;19.87;52.09;101285.75;5082060;28;45301;-46
2021/08/20 08:23:17;;;;;;;;;8.50;8.00;;;;;19.88;51.87;101287.47;5081930;28;46547;-46
2021/08/20 08:25:42;;;;;;;;;6.25;6.25;;;;;19.89;52.20;101289.22;5081697;28;45971;-44
2021/08/20 08:28:08;;;;;;;;;8.00;8.00;;;;;19.94;51.82;101289.88;5082233;28;45220;-50
2021/08/20 08:30:39;;;;;;;;;9.00;9.00;;;;;19.98;52.18;101293.28;5081840;27;45281;-48
2021/08/20 08:33:05;;;;;;;;;10.50;10.50;;;;;20.01;52.21;101295.78;5081580;28;45261;-47
2021/08/20 08:35:31;;;;;;;;;11.25;8.75;;;;;20.05;52.24;101300.06;5081582;28;46402;-46
2021/08/20 08:38:09;;;;;;;;;8.75;6.75;;;;;20.09;52.22;101307.00;5081937;28;45429;-47
2021/08/20 08:40:39;;;;;;;;;10.25;8.00;;;;;20.11;52.09;101310.47;5081573;27;45208;-45
2021/08/20 08:43:06;;;;;;;;;9.00;8.00;;;;;20.15;52.36;101308.53;5081679;28;45347;-45
2021/08/20 08:45:31;;;;;;;;;9.50;8.00;;;;;20.18;51.71;101311.03;5081370;28;46356;-48
2021/08/20 08:48:01;;;;;;;;;10.25;7.25;;;;;20.22;51.80;101301.09;5081452;28;45390;-48
2021/08/20 08:50:26;;;;;;;;;11.25;11.25;;;;;20.27;52.02;101310.59;5081384;27;45291;-49
2021/08/20 08:52:52;;;;;;;;;13.25;9.00;;;;;20.29;52.14;101306.09;5080346;28;45344;-49
2021/08/20 08:55:17;;;;;;;;;12.25;11.25;;;;;20.35;51.63;101304.94;5081309;28;47145;-50
2021/08/20 08:57:43;;;;;;;;;12.75;10.25;;;;;20.38;52.12;101303.94;5081563;28;45388;-48
2021/08/20 09:00:09;;;;;;;;;8.75;8.75;;;;;20.43;51.80;101300.09;5081308;28;45311;-50
2021/08/20 09:02:35;;;;;;;;;12.50;11.00;;;;;20.49;51.78;101303.41;5079931;28;45474;-47
2021/08/20 09:05:10;;;;;;;;;12.50;10.75;;;;;20.54;51.49;101296.06;5081057;28;45466;-48
2021/08/20 09:07:35;;;;;;;;;10.50;9.75;;;;;20.60;52.03;101298.44;5079954;28;45859;-46
2021/08/20 09:10:24;;;;;;;;;11.75;11.00;;;;;20.66;51.57;101306.16;5079839;27;45290;-47
2021/08/20 09:12:49;;;;;;;;;13.50;11.50;;;;;20.72;51.79;101303.22;5080908;28;45392;-48
2021/08/20 09:15:16;;;;;;;;;12.50;10.00;;;;;20.77;51.96;101301.19;5081101;28;45247;-48
2021/08/20 09:17:50;;;;;;;;;10.00;9.50;;;;;20.84;51.60;101312.47;5078867;28;45372;-47
2021/08/20 09:20:27;;;;;;;;;11.00;9.25;;;;;20.91;52.07;101307.69;5080558;27;45251;-45
2021/08/20 09:22:55;;;;;;;;;8.00;8.00;;;;;20.96;51.41;101299.47;5079975;28;45332;-48
2021/08/20 09:25:44;;;;;;;;;12.75;11.00;;;;;21.01;51.35;101303.63;5080156;28;46200;-48
2021/08/20 09:28:25;;;;;;;;;11.75;9.75;;;;;21.07;51.71;101299.78;5080731;28;45286;-49
2021/08/20 09:30:54;;;;;;;;;10.25;8.75;;;;;21.14;51.72;101295.00;5080423;28;45404;-49
2021/08/20 09:33:21;;;;;;;;;6.50;6.50;;;;;21.19;51.78;101292.97;5080792;28;45154;-49
2021/08/20 09:35:58;;;;;;;;;8.75;6.50;;;;;21.23;51.84;101287.38;5080402;27;46246;-46
2021/08/20 09:38:24;;;;;;;;;7.75;5.00;;;;;21.32;51.77;101287.84;5080596;27;45387;-49
2021/08/20 09:40:52;;;;;;;;;8.00;8.00;;;;;21.35;51.57;101291.22;5080661;27;45233;-46
2021/08/20 09:43:33;;;;;;;;;7.00;7.00;;;;;21.43;51.46;101290.84;5080820;28;45292;-46
2021/08/20 09:46:11;;;;;;;;;9.50;7.25;;;;;21.46;51.32;101288.03;5080375;28;47075;-49
2021/08/20 09:48:50;;;;;;;;;8.50;8.00;;;;;21.53;51.15;101292.09;5080257;28;45269;-45
2021/08/20 09:51:30;;;;;;;;;7.25;3.50;;;;;21.59;51.01;101290.94;5080574;28;45260;-50
2021/08/20 09:54:03;;;;;;;;;8.25;7.50;;;;;21.65;50.95;101293.31;5079178;28;45327;-50
2021/08/20 09:56:30;;;;;;;;;9.50;7.50;;;;;21.69;51.40;101292.19;5080246;28;45386;-51
2021/08/20 09:58:59;;;;;;;;;7.50;6.00;;;;;21.77;51.19;101293.63;5079001;28;45509;-47
2021/08/20 10:01:28;;;;;;;;;6.50;6.50;;;;;21.83;51.02;101293.28;5080204;28;45251;-51
2021/08/20 10:03:57;;;;;;;;;6.50;6.50;;;;;21.89;51.25;101291.16;5079141;28;45436;-50
2021/08/20 10:06:24;;;;;;;;;13.50;13.50;;;;;21.99;50.95;101293.34;5079871;28;47255;-46
2021/08/20 10:08:50;;;;;;;;;9.25;7.00;;;;;22.06;51.29;101298.28;5080482;28;45281;-51
2021/08/20 10:11:17;;;;;;;;;8.00;6.00;;;;;22.13;50.91;101293.44;5080204;27;45381;-49
2021/08/20 10:13:45;;;;;;;;;8.25;8.25;;;;;22.21;50.67;101299.28;5078864;28;45342;-47
2021/08/20 10:16:12;;;;;;;;;10.00;9.00;;;;;22.22;50.92;101287.59;5079758;28;47001;-49
2021/08/20 10:18:38;;;;;;;;;8.75;8.75;;;;;22.40;51.00;101298.25;5080243;28;45290;-51
2021/08/20 10:21:03;;;;;;;;;8.00;8.00;;;;;22.50;50.71;101299.50;5079821;28;45185;-50
2021/08/20 10:23:31;;;;;;;;;13.75;12.00;;;;;22.60;50.73;101296.31;5080079;28;45297;-48
2021/08/20 10:25:56;;;;;;;;;5.00;5.00;;;;;22.68;50.68;101297.59;5078724;28;48519;-47
2021/08/20 10:28:23;;;;;;;;;6.50;6.50;;;;;22.79;50.71;101297.00;5080152;28;45293;-50
2021/08/20 10:30:50;;;;;;;;;6.00;6.00;;;;;22.89;50.77;101294.63;5079854;28;45358;-47
2021/08/20 10:33:29;;;;;;;;;6.75;6.00;;;;;23.04;50.63;101299.13;5080161;27;45294;-52
2021/08/20 10:35:57;;;;;;;;;7.75;7.00;;;;;23.16;50.65;101297.56;5079611;27;45339;-49
2021/08/20 10:38:26;;;;;;;;;8.00;6.00;;;;;23.31;50.48;101295.81;5079715;28;45432;-51
2021/08/20 10:41:11;;;;;;;;;5.25;3.50;;;;;23.47;50.30;101298.44;5079961;27;45272;-51
2021/08/20 10:43:58;;;;;;;;;6.00;5.25;;;;;23.63;49.86;101298.38;5079477;27;45315;-51
2021/08/20 10:46:34;;;;;;;;;4.00;4.00;;;;;23.75;50.00;101295.88;5079460;28;46060;-50
2021/08/20 10:49:12;;;;;;;;;3.00;3.00;;;;;23.89;49.61;101295.91;5066769;28;45344;-47
2021/08/20 10:51:50;;;;;;;;;4.50;4.50;;;;;24.07;49.77;101291.25;5079611;27;45487;-50
2021/08/20 10:54:22;;;;;;;;;17.75;17.75;;;;;24.25;49.46;101283.88;5079920;28;45251;-49
2021/08/20 10:56:48;;;;;;;;;25.00;22.00;;;;;24.47;49.31;101287.88;5079431;28;47067;-50
2021/08/20 10:59:49;;;;;;;;;3.00;3.00;;;;;24.72;49.36;101286.31;5079907;28;45468;-49
2021/08/20 11:02:21;;;;;;;;;5.00;4.00;;;;;24.89;49.05;101285.19;5036938;28;45313;-48
2021/08/20 11:05:08;;;;;;;;;3.25;3.25;;;;;25.15;48.62;101287.00;5067923;28;45366;-50
2021/08/20 11:07:36;;;;;;;;;5.00;2.75;;;;;25.39;48.67;101286.31;5079451;28;46345;-49
2021/08/20 11:10:27;;;;;;;;;3.75;3.75;;;;;25.67;48.94;101278.19;5079310;28;45238;-47
2021/08/20 11:12:55;;;;;;;;;2.50;2.50;;;;;25.98;48.66;101278.72;5079396;28;45426;-49
2021/08/20 11:15:20;;;;;;;;;3.25;2.25;;;;;26.30;48.68;101286.34;5079806;28;45444;-47
2021/08/20 11:17:53;;;;;;;;;4.00;3.00;;;;;26.58;48.40;101279.81;5079045;28;46838;-49
2021/08/20 11:20:26;;;;;;;;;7.75;5.00;;;;;26.99;47.65;101283.97;5079599;27;45215;-48
2021/08/20 11:23:04;;;;;;;;;2.75;2.75;;;;;27.39;48.01;101282.78;5079474;28;45388;-49